createdAt,value
2019-05-30T00:01:20.618Z,7.01
2019-05-30T00:03:47.438Z,7.01
2019-05-30T00:06:14.234Z,7.00
2019-05-30T00:08:41.103Z,7.00
2019-05-30T00:11:07.903Z,7.00
2019-05-30T00:13:34.668Z,6.98
2019-05-30T00:16:02.796Z,6.94
2019-05-30T00:18:30.014Z,6.92
2019-05-30T00:20:58.659Z,6.93
2019-05-30T00:23:25.919Z,6.95
2019-05-30T00:25:52.978Z,6.93
2019-05-30T00:28:19.742Z,6.93
2019-05-30T00:30:46.513Z,6.90
2019-05-30T00:33:13.257Z,6.83
2019-05-30T00:35:40.151Z,6.79
2019-05-30T00:38:07.156Z,6.76
2019-05-30T00:40:33.894Z,6.72
2019-05-30T00:43:06.305Z,6.74
2019-05-30T00:45:33.296Z,6.73
2019-05-30T00:48:00.575Z,6.71
2019-05-30T00:50:27.467Z,6.74
2019-05-30T00:52:54.426Z,6.73
2019-05-30T00:55:21.236Z,6.69
2019-05-30T00:57:48.100Z,6.66
2019-05-30T01:00:14.968Z,6.68
2019-05-30T01:02:42.019Z,6.65
2019-05-30T01:05:09.117Z,6.61
2019-05-30T01:07:35.882Z,6.59
2019-05-30T01:10:03.219Z,6.58
2019-05-30T01:12:30.370Z,6.56
2019-05-30T01:14:57.176Z,6.55
2019-05-30T01:17:24.243Z,6.53
2019-05-30T01:19:51.099Z,6.48
2019-05-30T01:22:18.167Z,6.47
2019-05-30T01:24:45.183Z,6.46
2019-05-30T01:27:12.255Z,6.43
2019-05-30T01:29:39.838Z,6.45
2019-05-30T01:32:24.741Z,6.43
2019-05-30T01:34:51.577Z,6.38
2019-05-30T01:37:18.691Z,6.34
2019-05-30T01:39:45.576Z,6.32
2019-05-30T01:42:12.726Z,6.29
2019-05-30T01:44:39.529Z,6.28
2019-05-30T01:47:06.434Z,6.28
2019-05-30T01:49:33.475Z,6.24
2019-05-30T01:52:00.367Z,6.14
2019-05-30T01:54:27.149Z,6.11
2019-05-30T01:56:53.953Z,6.07
2019-05-30T01:59:21.112Z,6.04
2019-05-30T02:01:47.968Z,6.06
2019-05-30T02:04:16.183Z,6.07
2019-05-30T02:06:43.116Z,6.04
2019-05-30T02:09:11.039Z,6.05
2019-05-30T02:11:38.537Z,6.02
2019-05-30T02:14:05.736Z,5.97
2019-05-30T02:16:32.506Z,5.87
2019-05-30T02:18:59.564Z,5.84
2019-05-30T02:21:26.410Z,5.79
2019-05-30T02:23:53.300Z,5.72
2019-05-30T02:26:20.169Z,5.66
2019-05-30T02:28:47.544Z,5.60
2019-05-30T02:31:14.401Z,5.63
2019-05-30T02:33:41.253Z,5.57
2019-05-30T02:36:09.951Z,5.46
2019-05-30T02:38:36.899Z,5.49
2019-05-30T02:41:05.425Z,5.51
2019-05-30T02:43:32.429Z,5.48
2019-05-30T02:46:00.926Z,5.51
2019-05-30T02:48:27.968Z,5.53
2019-05-30T02:50:54.716Z,5.53
2019-05-30T02:53:21.498Z,5.54
2019-05-30T02:55:48.235Z,5.62
2019-05-30T02:58:18.271Z,5.54
2019-05-30T03:00:55.318Z,5.60
2019-05-30T03:03:23.041Z,5.56
2019-05-30T03:05:49.794Z,5.50
2019-05-30T03:08:17.248Z,5.46
2019-05-30T03:10:44.195Z,5.41
2019-05-30T03:13:12.702Z,5.41
2019-05-30T03:15:39.803Z,5.47
2019-05-30T03:18:08.074Z,5.49
2019-05-30T03:20:35.286Z,5.50
2019-05-30T03:23:04.810Z,5.55
2019-05-30T03:25:31.150Z,5.62
2019-05-30T03:27:57.915Z,5.63
2019-05-30T03:30:28.317Z,5.69
2019-05-30T03:33:24.480Z,5.73
2019-05-30T03:35:29.475Z,5.75
2019-05-30T03:37:51.284Z,5.80
2019-05-30T03:40:19.262Z,5.81
2019-05-30T03:42:47.125Z,5.87
2019-05-30T03:45:16.582Z,5.87
2019-05-30T03:47:47.767Z,5.94
2019-05-30T03:50:17.402Z,5.91
2019-05-30T03:52:43.894Z,5.89
2019-05-30T03:55:12.528Z,5.95
2019-05-30T03:57:45.426Z,5.97
2019-05-30T04:00:24.502Z,6.05
2019-05-30T04:03:03.105Z,6.11
2019-05-30T04:05:35.287Z,6.19
2019-05-30T04:08:03.540Z,6.28
2019-05-30T04:10:37.480Z,6.46
2019-05-30T04:13:32.750Z,6.57
2019-05-30T04:15:59.654Z,6.74
2019-05-30T04:18:26.530Z,6.87
2019-05-30T04:20:53.520Z,7.01
2019-05-30T04:23:20.436Z,7.12
2019-05-30T04:25:47.180Z,7.20
2019-05-30T04:28:14.145Z,7.33
2019-05-30T04:30:42.411Z,7.48
2019-05-30T04:33:19.277Z,7.60
2019-05-30T04:35:38.155Z,7.71
2019-05-30T04:38:04.907Z,7.80
2019-05-30T04:40:31.685Z,7.98
2019-05-30T04:42:58.442Z,8.08
2019-05-30T04:45:27.970Z,8.15
2019-05-30T04:47:54.197Z,8.27
2019-05-30T04:50:21.064Z,8.41
2019-05-30T04:52:48.296Z,8.50
2019-05-30T04:55:17.737Z,8.62
2019-05-30T04:57:43.711Z,8.80
2019-05-30T05:00:12.994Z,8.93
2019-05-30T05:02:41.584Z,9.02
2019-05-30T05:05:08.604Z,9.25
2019-05-30T05:07:35.367Z,9.48
2019-05-30T05:10:02.160Z,9.62
2019-05-30T05:12:30.126Z,9.82
2019-05-30T05:14:56.890Z,9.89
2019-05-30T05:17:24.970Z,10.03
2019-05-30T05:19:52.586Z,10.27
2019-05-30T05:22:21.174Z,10.42
2019-05-30T05:24:48.837Z,10.63
2019-05-30T05:27:17.720Z,10.82
2019-05-30T05:29:44.404Z,10.99
2019-05-30T05:32:12.360Z,11.13
2019-05-30T05:34:40.200Z,11.27
2019-05-30T05:37:07.125Z,11.41
2019-05-30T05:39:34.149Z,11.58
2019-05-30T05:42:00.898Z,11.79
2019-05-30T05:44:28.727Z,12.03
2019-05-30T05:46:55.719Z,12.20
2019-05-30T05:49:22.670Z,12.35
2019-05-30T05:51:49.542Z,12.53
2019-05-30T05:54:16.785Z,12.68
2019-05-30T05:56:43.694Z,12.94
2019-05-30T05:59:10.558Z,13.13
2019-05-30T06:01:37.314Z,13.26
2019-05-30T06:04:12.978Z,13.36
2019-05-30T06:06:33.142Z,13.42
2019-05-30T06:09:00.037Z,13.55
2019-05-30T06:11:26.787Z,13.51
2019-05-30T06:13:53.771Z,13.60
2019-05-30T06:16:20.414Z,13.68
2019-05-30T06:18:47.546Z,13.72
2019-05-30T06:21:14.663Z,13.68
2019-05-30T06:23:45.431Z,13.83
2019-05-30T06:26:10.654Z,13.86
2019-05-30T06:28:37.569Z,13.96
2019-05-30T06:31:04.435Z,14.06
2019-05-30T06:33:31.335Z,14.16
2019-05-30T06:35:58.235Z,14.19
2019-05-30T06:38:25.308Z,14.26
2019-05-30T06:40:52.313Z,14.43
2019-05-30T06:43:19.860Z,14.62
2019-05-30T06:45:47.252Z,14.83
2019-05-30T06:48:14.145Z,15.04
2019-05-30T06:50:41.007Z,15.27
2019-05-30T06:53:08.155Z,15.40
2019-05-30T06:55:35.101Z,15.44
2019-05-30T06:58:02.486Z,15.68
2019-05-30T07:00:30.303Z,15.85
2019-05-30T07:02:57.192Z,16.03
2019-05-30T07:05:25.795Z,16.16
2019-05-30T07:07:53.052Z,16.39
2019-05-30T07:10:20.024Z,16.58
2019-05-30T07:12:46.910Z,16.57
2019-05-30T07:15:14.325Z,16.55
2019-05-30T07:17:41.197Z,16.74
2019-05-30T07:20:08.156Z,16.68
2019-05-30T07:22:35.383Z,17.07
2019-05-30T07:25:02.329Z,17.32
2019-05-30T07:27:29.928Z,17.50
2019-05-30T07:29:56.895Z,17.48
2019-05-30T07:32:24.042Z,17.51
2019-05-30T07:35:05.505Z,17.65
2019-05-30T07:37:19.599Z,17.77
2019-05-30T07:39:46.500Z,18.04
2019-05-30T07:42:13.412Z,18.24
2019-05-30T07:44:40.307Z,18.37
2019-05-30T07:47:07.431Z,18.49
2019-05-30T07:49:34.674Z,18.62
2019-05-30T07:52:01.508Z,18.81
2019-05-30T07:54:28.839Z,18.70
2019-05-30T07:56:55.799Z,18.58
2019-05-30T07:59:22.601Z,18.92
2019-05-30T08:01:49.484Z,19.10
2019-05-30T08:04:16.938Z,19.26
2019-05-30T08:06:43.813Z,19.39
2019-05-30T08:09:10.727Z,19.53
2019-05-30T08:11:37.598Z,19.43
2019-05-30T08:14:04.520Z,19.47
2019-05-30T08:16:31.782Z,19.74
2019-05-30T08:18:58.596Z,19.63
2019-05-30T08:21:25.470Z,19.95
2019-05-30T08:23:52.567Z,20.18
2019-05-30T08:26:19.424Z,20.11
2019-05-30T08:28:46.293Z,20.32
2019-05-30T08:31:13.416Z,20.34
2019-05-30T08:33:40.576Z,20.45
2019-05-30T08:36:07.633Z,20.34
2019-05-30T08:38:35.352Z,20.49
2019-05-30T08:41:02.374Z,20.65
2019-05-30T08:43:29.329Z,21.08
2019-05-30T08:45:58.807Z,20.87
2019-05-30T08:48:25.756Z,20.95
2019-05-30T08:50:52.584Z,21.53
2019-05-30T08:53:19.513Z,21.82
2019-05-30T08:55:46.609Z,21.65
2019-05-30T08:58:13.538Z,21.58
2019-05-30T09:00:40.429Z,21.62
2019-05-30T09:03:07.340Z,21.93
2019-05-30T09:05:35.843Z,22.14
2019-05-30T09:08:03.481Z,22.26
2019-05-30T09:10:31.219Z,22.22
2019-05-30T09:12:58.464Z,22.31
2019-05-30T09:15:26.146Z,22.37
2019-05-30T09:17:53.406Z,22.80
2019-05-30T09:20:20.829Z,22.70
2019-05-30T09:22:47.778Z,22.54
2019-05-30T09:25:15.352Z,22.58
2019-05-30T09:27:42.942Z,22.41
2019-05-30T09:30:13.439Z,22.85
2019-05-30T09:32:41.323Z,22.56
2019-05-30T09:35:10.502Z,22.94
2019-05-30T09:37:37.314Z,22.97
2019-05-30T09:40:05.399Z,23.51
2019-05-30T09:42:32.343Z,23.95
2019-05-30T09:45:02.189Z,23.61
2019-05-30T09:47:29.108Z,23.59
2019-05-30T09:49:56.254Z,23.45
2019-05-30T09:52:23.258Z,23.58
2019-05-30T09:54:50.358Z,23.73
2019-05-30T09:57:17.134Z,24.19
2019-05-30T09:59:45.500Z,24.11
2019-05-30T10:02:13.341Z,24.49
2019-05-30T10:04:40.107Z,24.43
2019-05-30T10:07:06.930Z,24.74
2019-05-30T10:09:33.786Z,25.26
2019-05-30T10:12:00.722Z,25.20
2019-05-30T10:14:27.499Z,25.39
2019-05-30T10:16:56.526Z,25.84
2019-05-30T10:19:23.409Z,25.87
2019-05-30T10:21:51.681Z,26.20
2019-05-30T10:24:19.067Z,26.20
2019-05-30T10:26:47.137Z,26.09
2019-05-30T10:29:14.062Z,26.42
2019-05-30T10:31:41.009Z,25.90
2019-05-30T10:34:07.934Z,26.08
2019-05-30T10:36:43.762Z,26.61
2019-05-30T10:39:05.665Z,26.88
2019-05-30T10:41:32.504Z,26.82
2019-05-30T10:43:59.280Z,27.19
2019-05-30T10:46:26.151Z,27.11
2019-05-30T10:48:54.757Z,26.77
2019-05-30T10:51:22.030Z,26.85
2019-05-30T10:53:50.353Z,27.19
2019-05-30T10:56:18.168Z,26.94
2019-05-30T10:58:46.534Z,27.65
2019-05-30T11:01:13.869Z,28.43
2019-05-30T11:03:40.774Z,26.96
2019-05-30T11:06:17.449Z,27.82
2019-05-30T11:08:44.816Z,28.18
2019-05-30T11:11:11.730Z,27.61
2019-05-30T11:13:38.641Z,28.20
2019-05-30T11:16:05.405Z,28.46
2019-05-30T11:18:32.243Z,29.28
2019-05-30T11:20:59.438Z,29.64
2019-05-30T11:23:26.855Z,28.75
2019-05-30T11:25:54.720Z,27.62
2019-05-30T11:28:21.720Z,27.74
2019-05-30T11:30:48.659Z,29.28
2019-05-30T11:33:15.566Z,29.05
2019-05-30T11:35:42.409Z,30.29
2019-05-30T11:38:09.317Z,29.96
2019-05-30T11:40:36.162Z,30.95
2019-05-30T11:43:03.024Z,31.16
2019-05-30T11:45:30.229Z,31.44
2019-05-30T11:47:58.054Z,30.75
2019-05-30T11:50:25.269Z,30.55
2019-05-30T11:52:52.130Z,31.26
2019-05-30T11:55:18.934Z,32.14
2019-05-30T11:57:45.862Z,32.48
2019-05-30T12:00:12.932Z,33.14
2019-05-30T12:02:39.806Z,31.89
2019-05-30T12:05:07.430Z,32.17
2019-05-30T12:07:36.670Z,31.56
2019-05-30T12:10:03.340Z,29.76
2019-05-30T12:12:30.332Z,29.34
2019-05-30T12:14:57.434Z,29.04
2019-05-30T12:17:24.708Z,28.46
2019-05-30T12:19:51.632Z,27.52
2019-05-30T12:22:19.381Z,27.70
2019-05-30T12:24:46.353Z,27.96
2019-05-30T12:27:13.283Z,26.99
2019-05-30T12:29:40.628Z,26.36
2019-05-30T12:32:07.690Z,26.36
2019-05-30T12:34:34.467Z,26.31
2019-05-30T12:37:02.829Z,25.98
2019-05-30T12:39:30.098Z,26.24
2019-05-30T12:41:56.988Z,26.09
2019-05-30T12:44:23.915Z,26.03
2019-05-30T12:46:50.712Z,25.63
2019-05-30T12:49:17.604Z,25.78
2019-05-30T12:51:44.808Z,25.96
2019-05-30T12:54:11.963Z,26.04
2019-05-30T12:56:38.894Z,26.21
2019-05-30T12:59:06.903Z,26.21
2019-05-30T13:01:34.086Z,26.27
2019-05-30T13:04:03.108Z,26.27
2019-05-30T13:06:30.740Z,26.49
2019-05-30T13:08:57.699Z,26.14
2019-05-30T13:11:24.888Z,26.37
2019-05-30T13:13:52.019Z,26.31
2019-05-30T13:16:19.586Z,26.34
2019-05-30T13:18:46.537Z,26.01
2019-05-30T13:21:13.783Z,25.99
2019-05-30T13:23:41.459Z,25.89
2019-05-30T13:26:08.374Z,25.95
2019-05-30T13:28:35.256Z,25.59
2019-05-30T13:31:02.331Z,25.86
2019-05-30T13:33:29.180Z,25.81
2019-05-30T13:35:56.988Z,25.84
2019-05-30T13:38:26.703Z,25.59
2019-05-30T13:40:53.047Z,25.73
2019-05-30T13:43:19.833Z,26.09
2019-05-30T13:45:47.036Z,25.81
2019-05-30T13:48:13.805Z,25.97
2019-05-30T13:50:40.860Z,26.21
2019-05-30T13:53:07.757Z,25.70
2019-05-30T13:55:34.710Z,25.98
2019-05-30T13:58:01.631Z,26.16
2019-05-30T14:00:28.576Z,26.52
2019-05-30T14:02:55.398Z,26.36
2019-05-30T14:05:22.281Z,26.38
2019-05-30T14:07:49.218Z,26.41
2019-05-30T14:10:16.184Z,26.33
2019-05-30T14:12:42.998Z,26.53
2019-05-30T14:15:13.798Z,26.91
2019-05-30T14:17:39.778Z,26.53
2019-05-30T14:20:07.056Z,26.77
2019-05-30T14:22:34.488Z,26.86
2019-05-30T14:25:01.526Z,27.15
2019-05-30T14:27:28.482Z,27.46
2019-05-30T14:29:55.404Z,27.37
2019-05-30T14:32:22.674Z,27.37
2019-05-30T14:34:49.672Z,27.84
2019-05-30T14:37:16.967Z,27.61
2019-05-30T14:39:43.915Z,27.10
2019-05-30T14:42:11.218Z,27.98
2019-05-30T14:44:38.667Z,27.98
2019-05-30T14:47:06.396Z,27.85
2019-05-30T14:49:33.542Z,28.03
2019-05-30T14:52:00.327Z,28.17
2019-05-30T14:54:27.140Z,28.25
2019-05-30T14:56:53.941Z,28.74
2019-05-30T14:59:21.005Z,28.89
2019-05-30T15:01:47.883Z,28.91
2019-05-30T15:04:14.963Z,28.93
2019-05-30T15:06:41.755Z,29.34
2019-05-30T15:09:17.808Z,30.50
2019-05-30T15:11:37.689Z,30.93
2019-05-30T15:14:04.663Z,30.62
2019-05-30T15:16:31.461Z,30.34
2019-05-30T15:18:58.631Z,29.59
2019-05-30T15:21:25.452Z,29.78
2019-05-30T15:23:52.228Z,31.85
2019-05-30T15:26:19.137Z,34.20
2019-05-30T15:28:46.161Z,34.81
2019-05-30T15:31:13.089Z,33.41
2019-05-30T15:33:39.942Z,32.54
2019-05-30T15:36:06.882Z,30.57
2019-05-30T15:38:33.749Z,29.27
2019-05-30T15:41:00.558Z,28.79
2019-05-30T15:43:27.428Z,27.98
2019-05-30T15:45:54.248Z,27.65
2019-05-30T15:48:23.724Z,27.43
2019-05-30T15:50:51.354Z,27.22
2019-05-30T15:53:19.881Z,26.82
2019-05-30T15:55:48.795Z,27.21
2019-05-30T15:58:18.037Z,26.65
2019-05-30T16:00:45.510Z,26.76
2019-05-30T16:03:14.681Z,26.84
2019-05-30T16:05:43.011Z,26.37
2019-05-30T16:08:13.383Z,25.80
2019-05-30T16:10:40.132Z,25.25
2019-05-30T16:13:07.545Z,25.04
2019-05-30T16:15:34.531Z,24.93
2019-05-30T16:18:01.496Z,24.59
2019-05-30T16:20:29.162Z,24.40
2019-05-30T16:22:56.292Z,24.54
2019-05-30T16:25:23.254Z,24.38
2019-05-30T16:27:50.303Z,24.24
2019-05-30T16:30:22.100Z,24.05
2019-05-30T16:32:46.394Z,24.02
2019-05-30T16:35:14.022Z,23.94
2019-05-30T16:37:41.092Z,23.76
2019-05-30T16:40:09.151Z,23.88
2019-05-30T16:42:36.143Z,23.96
2019-05-30T16:45:05.148Z,24.06
2019-05-30T16:47:32.147Z,24.04
2019-05-30T16:49:59.067Z,23.91
2019-05-30T16:52:27.243Z,23.84
2019-05-30T16:54:54.228Z,23.68
2019-05-30T16:57:22.618Z,23.56
2019-05-30T16:59:49.497Z,23.50
2019-05-30T17:02:17.019Z,23.53
2019-05-30T17:04:44.083Z,23.40
2019-05-30T17:07:10.843Z,23.60
2019-05-30T17:09:37.890Z,23.82
2019-05-30T17:12:04.773Z,23.86
2019-05-30T17:14:32.454Z,24.03
2019-05-30T17:17:02.867Z,24.02
2019-05-30T17:19:28.793Z,23.93
2019-05-30T17:21:55.553Z,24.06
2019-05-30T17:24:23.004Z,24.00
2019-05-30T17:26:51.992Z,24.01
2019-05-30T17:29:19.725Z,23.90
2019-05-30T17:31:46.597Z,23.95
2019-05-30T17:34:13.529Z,23.83
2019-05-30T17:36:40.296Z,23.66
2019-05-30T17:39:07.726Z,23.26
2019-05-30T17:41:34.597Z,23.06
2019-05-30T17:44:01.513Z,22.72
2019-05-30T17:46:29.847Z,22.33
2019-05-30T17:48:57.177Z,22.09
2019-05-30T17:51:23.854Z,21.96
2019-05-30T17:53:51.199Z,21.75
2019-05-30T17:56:17.988Z,21.67
2019-05-30T17:58:44.989Z,21.37
2019-05-30T18:01:11.757Z,21.50
2019-05-30T18:03:38.975Z,21.55
2019-05-30T18:06:05.822Z,21.55
2019-05-30T18:08:32.742Z,21.55
2019-05-30T18:10:59.397Z,21.58
2019-05-30T18:13:27.106Z,21.46
2019-05-30T18:15:54.083Z,21.51
2019-05-30T18:18:21.208Z,21.45
2019-05-30T18:20:48.888Z,21.29
2019-05-30T18:23:15.869Z,21.24
2019-05-30T18:25:44.820Z,21.07
2019-05-30T18:28:11.724Z,21.06
2019-05-30T18:30:41.799Z,21.11
2019-05-30T18:33:08.768Z,20.98
2019-05-30T18:35:35.710Z,20.90
2019-05-30T18:38:02.997Z,20.87
2019-05-30T18:40:31.446Z,20.79
2019-05-30T18:42:58.382Z,20.80
2019-05-30T18:45:34.618Z,20.78
2019-05-30T18:48:01.533Z,20.77
2019-05-30T18:50:29.351Z,20.63
2019-05-30T18:52:56.460Z,20.58
2019-05-30T18:55:24.548Z,20.61
2019-05-30T18:57:51.683Z,20.59
2019-05-30T19:00:18.922Z,20.57
2019-05-30T19:02:45.772Z,20.55
2019-05-30T19:05:12.785Z,20.47
2019-05-30T19:07:39.808Z,20.45
2019-05-30T19:10:07.092Z,20.36
2019-05-30T19:12:34.465Z,20.33
2019-05-30T19:15:01.350Z,20.39
2019-05-30T19:17:29.562Z,20.34
2019-05-30T19:19:56.587Z,20.31
2019-05-30T19:22:23.352Z,20.32
2019-05-30T19:24:50.543Z,20.30
2019-05-30T19:27:17.710Z,20.26
2019-05-30T19:29:54.192Z,20.27
2019-05-30T19:32:21.886Z,20.16
2019-05-30T19:34:48.714Z,20.22
2019-05-30T19:37:15.881Z,20.18
2019-05-30T19:39:42.637Z,20.18
2019-05-30T19:42:09.469Z,20.08
2019-05-30T19:44:41.097Z,20.14
2019-05-30T19:47:05.557Z,20.08
2019-05-30T19:49:32.531Z,20.00
2019-05-30T19:51:59.340Z,19.99
2019-05-30T19:54:28.896Z,19.94
2019-05-30T19:56:55.755Z,19.84
2019-05-30T19:59:22.801Z,19.81
2019-05-30T20:01:49.614Z,19.92
2019-05-30T20:04:16.685Z,19.78
2019-05-30T20:06:43.530Z,19.63
2019-05-30T20:09:10.381Z,19.64
2019-05-30T20:11:37.350Z,19.60
2019-05-30T20:14:04.278Z,19.60
2019-05-30T20:16:31.434Z,19.56
2019-05-30T20:18:58.913Z,19.50
2019-05-30T20:21:25.993Z,19.46
2019-05-30T20:23:58.457Z,19.49
2019-05-30T20:26:21.930Z,19.45
2019-05-30T20:28:48.884Z,19.49
2019-05-30T20:31:15.815Z,19.44
2019-05-30T20:33:42.755Z,19.37
2019-05-30T20:36:09.924Z,19.31
2019-05-30T20:38:37.158Z,19.23
2019-05-30T20:41:03.955Z,19.24
2019-05-30T20:43:33.174Z,19.24
2019-05-30T20:45:59.472Z,19.20
2019-05-30T20:48:26.346Z,19.11
2019-05-30T20:50:53.417Z,19.03
2019-05-30T20:53:20.697Z,18.96
2019-05-30T20:55:47.801Z,18.91
2019-05-30T20:58:14.564Z,18.77
2019-05-30T21:00:42.191Z,18.68
2019-05-30T21:03:09.329Z,18.51
2019-05-30T21:05:37.718Z,18.37
2019-05-30T21:08:05.999Z,18.23
2019-05-30T21:10:34.930Z,18.14
2019-05-30T21:13:02.174Z,18.00
2019-05-30T21:15:31.534Z,17.91
2019-05-30T21:17:59.169Z,17.82
2019-05-30T21:20:26.297Z,17.76
2019-05-30T21:22:53.137Z,17.63
2019-05-30T21:25:20.380Z,17.51
2019-05-30T21:27:47.435Z,17.38
2019-05-30T21:30:14.477Z,17.26
2019-05-30T21:32:42.092Z,17.16
2019-05-30T21:35:10.239Z,17.04
2019-05-30T21:37:37.690Z,16.95
2019-05-30T21:40:05.253Z,16.86
2019-05-30T21:42:32.042Z,16.77
2019-05-30T21:44:59.236Z,16.68
2019-05-30T21:47:26.105Z,16.59
2019-05-30T21:49:53.008Z,16.49
2019-05-30T21:52:20.268Z,16.39
2019-05-30T21:54:47.858Z,16.32
2019-05-30T21:57:14.866Z,16.24
2019-05-30T21:59:42.339Z,16.15
2019-05-30T22:02:09.402Z,16.09
2019-05-30T22:04:36.357Z,16.02
2019-05-30T22:07:03.230Z,15.95
2019-05-30T22:09:30.148Z,15.89
2019-05-30T22:11:57.251Z,15.82
2019-05-30T22:14:24.178Z,15.75
2019-05-30T22:16:52.188Z,15.68
2019-05-30T22:19:19.309Z,15.62
2019-05-30T22:21:46.242Z,15.56
2019-05-30T22:24:13.040Z,15.51
2019-05-30T22:26:39.855Z,15.45
2019-05-30T22:29:06.661Z,15.42
2019-05-30T22:31:33.577Z,15.36
2019-05-30T22:34:00.514Z,15.31
2019-05-30T22:36:28.245Z,15.27
2019-05-30T22:38:55.180Z,15.25
2019-05-30T22:41:22.052Z,15.21
2019-05-30T22:43:48.855Z,15.17
2019-05-30T22:46:15.762Z,15.13
2019-05-30T22:48:44.325Z,15.08
2019-05-30T22:51:11.312Z,15.02
2019-05-30T22:53:38.086Z,14.97
2019-05-30T22:56:05.248Z,14.91
2019-05-30T22:58:32.203Z,14.87
2019-05-30T23:00:59.219Z,14.83
2019-05-30T23:03:26.180Z,14.80
2019-05-30T23:05:53.371Z,14.75
2019-05-30T23:08:20.383Z,14.73
2019-05-30T23:10:47.650Z,14.70
2019-05-30T23:13:14.717Z,14.64
2019-05-30T23:15:41.783Z,14.63
2019-05-30T23:18:08.716Z,14.58
2019-05-30T23:20:35.649Z,14.54
2019-05-30T23:23:02.430Z,14.60
2019-05-30T23:25:29.343Z,14.57
2019-05-30T23:27:56.236Z,14.52
2019-05-30T23:30:23.457Z,14.51
2019-05-30T23:32:50.538Z,14.52
2019-05-30T23:35:17.536Z,14.47
2019-05-30T23:37:44.530Z,14.45
2019-05-30T23:40:11.481Z,14.42
2019-05-30T23:42:38.402Z,14.36
2019-05-30T23:45:05.889Z,14.34
2019-05-30T23:47:33.447Z,14.28
2019-05-30T23:50:00.463Z,14.23
2019-05-30T23:52:27.358Z,14.21
2019-05-30T23:54:54.285Z,14.15
2019-05-30T23:57:21.481Z,14.11
2019-05-30T23:59:48.249Z,14.09
